Time;durP1;ratioP1;P1;durP2;ratioP2;P2;SDS_P1;SDS_P2;PMS_P1;PMS_P2;Temp;Humidity;BMP_temperature;BMP_pressure;BME280_temperature;BME280_humidity;BME280_pressure;Samples;Min_cycle;Max_cycle;Signal;HPM_P1;HPM_P2
2022/04/28 00:00:20;;;;;;;0.55;0.20;;;;;;;18.90;53.57;101238.44;4976406;28;20041;-47
2022/04/28 00:02:47;;;;;;;0.85;0.30;;;;;;;18.89;53.64;101242.06;4965764;28;20045;-50
2022/04/28 00:05:13;;;;;;;0.60;0.30;;;;;;;18.90;53.80;101238.44;4967434;28;20078;-46
2022/04/28 00:07:39;;;;;;;0.82;0.30;;;;;;;18.89;53.54;101234.97;4974336;28;20034;-47
2022/04/28 00:10:06;;;;;;;1.85;0.20;;;;;;;18.90;53.59;101235.78;4980630;28;20549;-49
2022/04/28 00:12:32;;;;;;;0.63;0.20;;;;;;;18.89;53.87;101237.63;4964317;28;20116;-49
2022/04/28 00:14:58;;;;;;;0.85;0.30;;;;;;;18.90;53.47;101239.22;4966122;28;20050;-47
2022/04/28 00:17:23;;;;;;;0.52;0.20;;;;;;;18.90;53.49;101244.50;4966742;28;20039;-49
2022/04/28 00:19:49;;;;;;;0.73;0.30;;;;;;;18.89;53.50;101232.34;4969026;28;20486;-48
2022/04/28 00:22:16;;;;;;;0.65;0.30;;;;;;;18.91;53.38;101234.75;4968390;28;20026;-46
2022/04/28 00:24:41;;;;;;;2.35;0.32;;;;;;;18.93;53.57;101245.13;4968504;28;20034;-47
2022/04/28 00:27:07;;;;;;;1.40;0.17;;;;;;;18.93;53.38;101247.78;4986448;28;20044;-48
2022/04/28 00:29:32;;;;;;;0.70;0.20;;;;;;;18.93;53.34;101245.13;4967835;28;20339;-49
2022/04/28 00:31:58;;;;;;;1.00;0.30;;;;;;;18.93;53.30;101237.22;4969971;28;20291;-47
2022/04/28 00:34:24;;;;;;;1.00;0.20;;;;;;;18.94;53.39;101246.78;4969641;28;20038;-46
2022/04/28 00:36:49;;;;;;;0.85;0.20;;;;;;;18.93;53.42;101239.84;4969069;28;20027;-47
2022/04/28 00:39:14;;;;;;;0.40;0.20;;;;;;;18.94;53.31;101241.50;4977464;28;20260;-47
2022/04/28 00:41:40;;;;;;;3.05;0.20;;;;;;;18.94;53.48;101241.50;4968343;28;20081;-47
2022/04/28 00:44:10;;;;;;;0.60;0.20;;;;;;;18.94;53.24;101238.88;4968740;28;20030;-50
2022/04/28 00:46:36;;;;;;;0.40;0.20;;;;;;;18.94;52.95;101236.22;4969130;28;20474;-48
2022/04/28 00:51:46;;;;;;;0.80;0.20;;;;;;;18.92;53.14;101232.94;4968190;28;20057;-47
2022/04/28 00:54:11;;;;;;;0.50;0.20;;;;;;;18.92;53.04;101236.41;4968792;28;20482;-50
2022/04/28 00:56:37;;;;;;;1.17;0.20;;;;;;;18.91;53.14;101237.41;4967794;28;20451;-49
2022/04/28 00:59:02;;;;;;;0.50;0.20;;;;;;;18.90;53.09;101228.66;4971465;28;20094;-49
2022/04/28 01:01:29;;;;;;;0.95;0.20;;;;;;;18.90;53.01;101233.94;4970878;28;20035;-48
2022/04/28 01:03:55;;;;;;;0.50;0.22;;;;;;;18.89;53.18;101232.34;4969658;28;20035;-46
2022/04/28 01:06:21;;;;;;;1.13;0.20;;;;;;;18.88;53.33;101230.69;4968664;28;20046;-48
2022/04/28 01:08:47;;;;;;;0.73;0.22;;;;;;;18.88;52.94;101232.50;4969866;28;20031;-47
2022/04/28 01:11:16;;;;;;;0.50;0.30;;;;;;;18.87;52.96;101229.03;4973206;28;20421;-48
2022/04/28 01:13:42;;;;;;;0.40;0.20;;;;;;;18.87;53.01;101230.88;4980379;28;20050;-50
2022/04/28 01:16:07;;;;;;;0.30;0.10;;;;;;;18.87;53.21;101226.41;4968298;28;20038;-46
2022/04/28 01:18:33;;;;;;;1.30;0.20;;;;;;;18.87;52.84;101234.31;4967416;28;21155;-47
2022/04/28 01:21:03;;;;;;;0.40;0.20;;;;;;;18.87;53.10;101234.31;4967791;28;20584;-47
2022/04/28 01:23:34;;;;;;;0.52;0.17;;;;;;;18.87;53.02;101236.97;4977559;28;20057;-50
2022/04/28 01:26:00;;;;;;;0.88;0.20;;;;;;;18.88;53.16;101224.59;4969150;28;20070;-48
2022/04/28 01:28:30;;;;;;;0.47;0.20;;;;;;;18.86;52.89;101227.41;4967391;28;20043;-47
2022/04/28 01:30:55;;;;;;;0.57;0.20;;;;;;;18.86;53.02;101222.13;4966837;28;20331;-48
2022/04/28 01:33:21;;;;;;;0.70;0.20;;;;;;;18.87;53.00;101226.41;4967363;28;20038;-48
2022/04/28 01:35:46;;;;;;;0.45;0.20;;;;;;;18.86;52.91;101210.75;4969021;28;20502;-48
2022/04/28 01:38:12;;;;;;;0.50;0.20;;;;;;;18.86;52.74;101229.22;4967643;28;20042;-50
2022/04/28 01:40:37;;;;;;;0.50;0.10;;;;;;;18.85;52.96;101225.75;4980833;28;20034;-51
2022/04/28 01:43:03;;;;;;;1.70;0.20;;;;;;;18.84;52.97;101223.31;4968295;28;20380;-53
2022/04/28 01:45:28;;;;;;;0.57;0.17;;;;;;;18.84;52.79;101225.94;4966968;28;20031;-49
2022/04/28 01:47:54;;;;;;;1.45;0.17;;;;;;;18.83;52.88;101233.03;4968681;28;20039;-51
2022/04/28 01:50:19;;;;;;;0.22;0.20;;;;;;;18.83;52.82;101219.84;4967838;28;20050;-46
2022/04/28 01:55:31;;;;;;;0.32;0.10;;;;;;;18.81;52.84;101218.38;4967861;28;20113;-47
2022/04/28 01:57:57;;;;;;;0.80;0.30;;;;;;;18.80;52.82;101217.56;4966997;28;20164;-47
2022/04/28 02:00:22;;;;;;;1.00;0.20;;;;;;;18.81;52.76;101218.38;4966043;28;20494;-47
2022/04/28 02:02:48;;;;;;;0.60;0.20;;;;;;;18.80;52.77;101219.38;4966304;28;20089;-52
2022/04/28 02:05:13;;;;;;;0.80;0.20;;;;;;;18.80;52.87;101227.31;4968786;28;20198;-48
2022/04/28 02:07:39;;;;;;;0.50;0.20;;;;;;;18.79;52.83;101229.13;4965759;28;20030;-53
2022/04/28 02:12:31;;;;;;;0.60;0.20;;;;;;;18.79;52.91;101225.66;5456493;23;20066;-49
2022/04/28 02:14:56;;;;;;;0.60;0.20;;;;;;;18.78;52.72;101224.84;4985913;28;20048;-48
2022/04/28 02:17:24;;;;;;;0.50;0.20;;;;;;;18.78;52.77;101224.84;4988129;28;20033;-47
2022/04/28 02:19:50;;;;;;;0.40;0.20;;;;;;;18.78;52.70;101230.13;4986878;28;20411;-49
2022/04/28 02:22:16;;;;;;;0.30;0.10;;;;;;;18.77;52.81;101225.84;4988196;28;20034;-47
2022/04/28 02:24:42;;;;;;;0.50;0.20;;;;;;;18.78;52.65;101227.47;4985838;28;20030;-50
2022/04/28 02:27:08;;;;;;;0.43;0.20;;;;;;;18.78;52.68;101219.56;4987601;28;20029;-50
2022/04/28 02:29:34;;;;;;;0.60;0.20;;;;;;;18.78;52.80;101229.31;4983867;28;20132;-50
2022/04/28 02:31:59;;;;;;;0.30;0.20;;;;;;;18.79;52.68;101215.94;4986548;28;20026;-51
2022/04/28 02:34:25;;;;;;;0.50;0.13;;;;;;;18.80;52.68;101220.19;4987732;28;20108;-46
2022/04/28 02:36:51;;;;;;;0.40;0.10;;;;;;;18.80;52.76;101217.56;4982896;28;20776;-47
2022/04/28 02:39:19;;;;;;;1.45;0.20;;;;;;;18.80;52.62;101217.56;4987605;28;20134;-49
2022/04/28 02:41:46;;;;;;;0.65;0.20;;;;;;;18.81;52.49;101219.22;4986054;28;20057;-49
2022/04/28 02:44:12;;;;;;;0.68;0.20;;;;;;;18.82;52.44;101228.75;4986588;28;20026;-48
2022/04/28 02:46:38;;;;;;;0.70;0.10;;;;;;;18.82;52.50;101220.84;4985633;28;20034;-47
2022/04/28 02:49:04;;;;;;;1.50;0.20;;;;;;;18.82;52.44;101220.03;4985184;28;20034;-47
2022/04/28 02:51:30;;;;;;;0.30;0.20;;;;;;;18.82;52.36;101218.22;4986563;28;20038;-48
2022/04/28 02:53:55;;;;;;;0.30;0.10;;;;;;;18.82;52.50;101231.41;4986659;28;20041;-48
2022/04/28 02:56:21;;;;;;;3.50;0.20;;;;;;;18.83;52.53;101219.03;4987616;28;20022;-48
2022/04/28 02:58:46;;;;;;;0.77;0.20;;;;;;;18.83;52.59;101222.50;4986514;28;20026;-48
2022/04/28 03:01:12;;;;;;;0.80;0.20;;;;;;;18.83;52.54;101224.31;4983809;28;20147;-52
2022/04/28 03:03:37;;;;;;;0.40;0.15;;;;;;;18.82;52.61;101225.31;4986023;28;20061;-47
2022/04/28 03:11:45;;;;;;;1.17;0.20;;;;;;;18.77;52.56;101215.28;4923905;29;20062;-51
2022/04/28 03:14:12;;;;;;;0.22;0.17;;;;;;;18.78;52.57;101216.09;4925471;29;20115;-48
2022/04/28 03:16:38;;;;;;;0.77;0.10;;;;;;;18.78;52.40;101224.84;4925599;29;20046;-48
2022/04/28 03:19:04;;;;;;;0.20;0.10;;;;;;;18.77;52.26;101223.19;4926311;29;20035;-49
2022/04/28 03:21:29;;;;;;;1.33;0.20;;;;;;;18.77;52.33;101232.94;4925119;29;20210;-47
2022/04/28 03:23:55;;;;;;;0.50;0.20;;;;;;;18.76;52.49;101216.28;4926097;29;20040;-47
2022/04/28 03:26:21;;;;;;;0.40;0.20;;;;;;;18.76;52.35;101226.03;4925901;29;20071;-48
2022/04/28 03:28:46;;;;;;;0.40;0.15;;;;;;;18.76;52.29;101224.19;4925244;29;20035;-48
2022/04/28 03:31:12;;;;;;;0.40;0.10;;;;;;;18.76;52.33;101226.84;4924506;29;20039;-47
2022/04/28 03:33:38;;;;;;;0.43;0.20;;;;;;;18.77;52.19;101228.47;4925825;29;20028;-48
2022/04/28 03:36:50;;;;;;;0.40;0.10;;;;;;;18.76;52.22;101234.75;4925499;29;20126;-50
2022/04/28 03:38:49;;;;;;;;;;;;;;;18.66;52.55;101231.53;4924975;29;20127;-49
2022/04/28 03:41:15;;;;;;;0.50;0.20;;;;;;;18.69;52.53;101228.56;4925902;29;19927;-49
2022/04/28 03:43:40;;;;;;;0.95;0.20;;;;;;;18.72;52.40;101241.41;4929594;28;20082;-47
2022/04/28 03:46:05;;;;;;;0.70;0.20;;;;;;;18.72;52.44;101236.13;4984601;28;20034;-49
2022/04/28 03:48:31;;;;;;;0.38;0.28;;;;;;;18.73;52.33;101234.28;4985678;28;20093;-48
2022/04/28 03:50:56;;;;;;;0.80;0.20;;;;;;;18.72;52.21;101244.03;4984652;28;20026;-48
2022/04/28 03:53:22;;;;;;;0.30;0.10;;;;;;;18.72;52.45;101237.94;4985892;28;20121;-49
2022/04/28 03:55:47;;;;;;;0.40;0.20;;;;;;;18.72;52.08;101240.56;4988194;28;20317;-51
2022/04/28 03:58:13;;;;;;;0.30;0.10;;;;;;;18.70;51.98;101240.75;4990084;28;20040;-47
2022/04/28 04:00:38;;;;;;;0.52;0.10;;;;;;;18.69;52.16;101241.75;4989862;28;20390;-48
2022/04/28 04:03:03;;;;;;;1.38;0.20;;;;;;;18.70;52.27;101242.56;4990246;28;20384;-48
2022/04/28 04:05:29;;;;;;;0.40;0.10;;;;;;;18.69;51.98;101247.03;4990447;28;20048;-47
2022/04/28 04:07:54;;;;;;;2.25;0.20;;;;;;;18.69;52.20;101244.38;4989573;28;20046;-47
2022/04/28 04:10:20;;;;;;;1.00;0.13;;;;;;;18.68;52.24;101242.75;4990009;28;20200;-47
2022/04/28 04:12:46;;;;;;;0.82;0.10;;;;;;;18.68;52.14;101245.38;4987699;28;20618;-47
2022/04/28 04:15:11;;;;;;;0.30;0.10;;;;;;;18.67;52.34;101249.03;4990537;28;20042;-44
2022/04/28 04:17:42;;;;;;;0.28;0.20;;;;;;;18.67;52.78;101254.31;4988259;28;20026;-46
2022/04/28 04:20:08;;;;;;;1.45;0.20;;;;;;;18.74;53.74;101257.06;4990312;28;20132;-48
2022/04/28 04:22:35;;;;;;;3.17;0.82;;;;;;;18.82;55.57;101257.00;4993798;28;20311;-47
2022/04/28 04:25:02;;;;;;;2.03;0.30;;;;;;;18.84;55.21;101258.44;4989312;28;20026;-47
2022/04/28 04:27:28;;;;;;;1.40;0.20;;;;;;;18.83;54.93;101258.63;4989515;28;20049;-47
2022/04/28 04:29:53;;;;;;;0.40;0.17;;;;;;;18.80;54.40;101256.34;4986766;28;20474;-48
2022/04/28 04:32:20;;;;;;;2.15;0.20;;;;;;;18.77;54.11;101265.44;4988934;28;20111;-50
2022/04/28 04:34:47;;;;;;;1.00;0.20;;;;;;;18.78;53.70;101255.69;4987063;28;20444;-49
2022/04/28 04:37:14;;;;;;;2.70;0.50;;;;;;;18.79;53.58;101258.16;4989267;28;20066;-52
2022/04/28 04:39:40;;;;;;;1.60;0.38;;;;;;;18.79;53.64;101250.25;4989905;28;20030;-48
2022/04/28 04:42:06;;;;;;;0.30;0.10;;;;;;;18.79;53.62;101252.88;4988069;28;20160;-53
2022/04/28 04:44:32;;;;;;;2.05;0.10;;;;;;;18.79;53.36;101258.16;4988214;28;20470;-48
2022/04/28 04:46:58;;;;;;;3.15;0.20;;;;;;;18.83;53.04;101253.34;4988525;28;20022;-48
2022/04/28 04:49:23;;;;;;;2.17;0.10;;;;;;;18.82;52.90;101254.34;4988679;28;20653;-47
2022/04/28 04:51:49;;;;;;;3.03;0.20;;;;;;;18.82;52.90;101263.09;4989174;28;20470;-55
2022/04/28 04:54:14;;;;;;;2.83;0.20;;;;;;;18.82;52.68;101263.09;4988762;28;20303;-47
2022/04/28 04:56:39;;;;;;;1.00;0.20;;;;;;;18.79;51.93;101257.34;4988912;28;20018;-50
2022/04/28 04:59:05;;;;;;;2.25;0.28;;;;;;;18.81;51.78;101260.63;4994664;22;20042;-53
2022/04/28 05:01:30;;;;;;;0.52;0.20;;;;;;;18.81;51.61;101258.81;4985305;28;20038;-50
2022/04/28 05:03:56;;;;;;;3.60;0.30;;;;;;;18.81;51.56;101260.63;4987042;28;20084;-51
2022/04/28 05:06:21;;;;;;;0.70;0.20;;;;;;;18.82;51.35;101262.25;4989446;28;20039;-55
2022/04/28 05:08:47;;;;;;;0.60;0.20;;;;;;;18.82;51.48;101260.44;4988724;28;20027;-47
2022/04/28 05:11:12;;;;;;;3.83;0.32;;;;;;;18.83;51.50;101263.91;4988614;28;20108;-50
2022/04/28 05:13:38;;;;;;;3.20;0.45;;;;;;;18.83;51.69;101267.38;4986065;28;20413;-46
2022/04/28 05:16:04;;;;;;;2.00;0.20;;;;;;;18.83;51.46;101263.91;4989467;28;20047;-45
2022/04/28 05:18:30;;;;;;;0.68;0.17;;;;;;;18.83;51.58;101262.09;4986594;28;20548;-54
2022/04/28 05:20:56;;;;;;;0.35;0.13;;;;;;;18.82;51.72;101264.91;4988423;28;20122;-58
2022/04/28 05:23:21;;;;;;;1.13;0.25;;;;;;;18.81;51.50;101274.66;4987491;28;20117;-49
2022/04/28 05:25:47;;;;;;;0.43;0.20;;;;;;;18.81;51.51;101274.66;4987898;28;20026;-52
2022/04/28 05:28:13;;;;;;;1.17;0.20;;;;;;;18.81;51.62;101268.53;4985920;28;20097;-53
2022/04/28 05:30:39;;;;;;;1.13;0.20;;;;;;;18.81;51.59;101272.00;4988706;28;20022;-52
2022/04/28 05:33:04;;;;;;;0.50;0.20;;;;;;;18.80;51.91;101274.81;4987136;28;20501;-54
2022/04/28 05:35:30;;;;;;;1.50;0.20;;;;;;;18.79;51.90;101276.63;4989041;28;20044;-48
2022/04/28 05:37:56;;;;;;;0.60;0.20;;;;;;;18.79;52.00;101279.28;4985120;28;20478;-53
2022/04/28 05:40:22;;;;;;;0.95;0.10;;;;;;;18.80;52.04;101280.09;4988850;28;20069;-53
2022/04/28 05:45:46;;;;;;;0.50;0.20;;;;;;;18.77;51.98;101281.28;4927752;29;20126;-51
2022/04/28 05:48:17;;;;;;;0.52;0.20;;;;;;;18.77;52.01;101281.28;4929107;29;20126;-53
2022/04/28 05:50:43;;;;;;;0.63;0.35;;;;;;;18.78;52.05;101293.47;4920653;29;20142;-53
2022/04/28 05:53:09;;;;;;;0.55;0.20;;;;;;;18.79;52.11;101292.47;4945999;29;20047;-54
2022/04/28 05:55:36;;;;;;;0.30;0.10;;;;;;;18.78;51.91;101295.28;4927874;29;20051;-54
2022/04/28 05:58:01;;;;;;;1.25;0.20;;;;;;;18.79;51.95;101294.31;4926311;29;20043;-52
2022/04/28 06:00:28;;;;;;;0.70;0.20;;;;;;;18.78;51.85;101292.66;4926115;29;20283;-58
2022/04/28 06:02:54;;;;;;;0.65;0.10;;;;;;;18.78;52.08;101292.66;4926607;29;20134;-54
2022/04/28 06:05:20;;;;;;;0.95;0.20;;;;;;;18.77;51.86;101297.13;4921378;29;20589;-50
2022/04/28 06:07:46;;;;;;;0.30;0.10;;;;;;;18.77;52.02;101293.66;4938004;29;20051;-53
2022/04/28 06:10:13;;;;;;;0.45;0.20;;;;;;;18.75;51.87;101299.13;4946630;29;20042;-51
2022/04/28 06:12:39;;;;;;;0.60;0.20;;;;;;;18.76;51.90;101303.41;4930708;29;20043;-49
2022/04/28 06:15:06;;;;;;;2.15;0.20;;;;;;;18.77;51.82;101309.50;4927233;29;20079;-51
2022/04/28 06:17:31;;;;;;;0.32;0.15;;;;;;;18.75;51.69;101312.31;4936133;29;20203;-54
2022/04/28 06:19:57;;;;;;;0.50;0.25;;;;;;;18.75;51.82;101314.13;4934025;29;20438;-50
2022/04/28 06:22:22;;;;;;;0.80;0.25;;;;;;;18.75;51.99;101308.84;4983552;28;20049;-53
2022/04/28 06:24:54;;;;;;;2.08;0.20;;;;;;;18.71;51.81;101304.91;4986662;28;20469;-54
2022/04/28 06:27:21;;;;;;;0.50;0.20;;;;;;;18.72;51.89;101304.75;4985802;28;20449;-55
2022/04/28 06:29:48;;;;;;;0.70;0.20;;;;;;;18.73;52.01;101314.31;4987991;28;20041;-54
2022/04/28 06:32:16;;;;;;;0.98;0.30;;;;;;;18.73;52.02;101321.41;4984885;28;20072;-53
2022/04/28 06:34:42;;;;;;;0.70;0.17;;;;;;;18.72;52.06;101317.13;4987211;28;20201;-51
2022/04/28 06:37:08;;;;;;;1.75;0.20;;;;;;;18.72;51.97;101317.13;4987664;28;20486;-54
2022/04/28 06:39:34;;;;;;;1.38;0.20;;;;;;;18.72;52.18;101319.75;4987543;28;20112;-54
2022/04/28 06:41:59;;;;;;;0.75;0.10;;;;;;;18.70;52.05;101319.94;4985080;28;20030;-52
2022/04/28 06:44:24;;;;;;;0.25;0.10;;;;;;;18.70;52.26;101322.56;4985591;28;20034;-52
2022/04/28 06:46:50;;;;;;;0.73;0.20;;;;;;;18.73;53.00;101319.59;4987254;28;20034;-50
2022/04/28 06:49:15;;;;;;;3.33;0.30;;;;;;;18.80;53.94;101317.88;4986176;28;20726;-54
2022/04/28 06:51:41;;;;;;;3.75;0.40;;;;;;;18.88;54.73;101327.56;4985543;28;20042;-50
2022/04/28 06:54:06;;;;;;;9.52;0.63;;;;;;;18.90;54.71;101323.72;4983957;28;20437;-45
2022/04/28 06:56:32;;;;;;;2.67;0.43;;;;;;;18.88;54.65;101323.09;4986185;28;20062;-46
2022/04/28 06:58:57;;;;;;;4.18;0.30;;;;;;;18.87;54.74;101318.00;4984893;28;20425;-49
2022/04/28 07:01:22;;;;;;;1.20;0.30;;;;;;;18.85;54.97;101326.09;4985886;28;20466;-44
2022/04/28 07:03:48;;;;;;;2.80;0.50;;;;;;;18.83;55.01;101325.44;4987158;28;20033;-44
2022/04/28 07:06:13;;;;;;;0.85;0.25;;;;;;;18.82;55.17;101329.09;4987308;28;20077;-46
2022/04/28 07:08:39;;;;;;;2.45;0.10;;;;;;;18.82;54.92;101329.09;4987227;28;20705;-46
2022/04/28 07:11:04;;;;;;;0.98;0.20;;;;;;;18.83;54.69;101333.38;4987296;28;20030;-46
2022/04/28 07:13:30;;;;;;;0.90;0.20;;;;;;;18.83;54.60;101329.91;4987563;28;20037;-43
2022/04/28 07:15:55;;;;;;;1.50;0.30;;;;;;;18.84;54.52;101324.44;4987392;28;20125;-47
2022/04/28 07:18:21;;;;;;;2.47;0.20;;;;;;;18.85;54.39;101320.00;4986402;28;20122;-44
2022/04/28 07:20:46;;;;;;;3.03;0.70;;;;;;;18.85;54.49;101318.16;4986818;28;20042;-46
2022/04/28 07:23:12;;;;;;;1.58;0.20;;;;;;;18.86;54.13;101324.28;4983064;28;20171;-48
2022/04/28 07:25:38;;;;;;;2.47;0.10;;;;;;;18.86;53.95;101326.91;4984822;28;20129;-50
2022/04/28 07:28:04;;;;;;;0.55;0.20;;;;;;;18.86;53.74;101326.91;4988689;28;20429;-45
2022/04/28 07:30:29;;;;;;;2.30;0.50;;;;;;;18.86;53.52;101326.91;4991236;28;20121;-46
2022/04/28 07:32:55;;;;;;;0.80;0.20;;;;;;;18.87;53.49;101323.28;4991352;28;20026;-46
2022/04/28 07:35:24;;;;;;;1.38;0.20;;;;;;;18.85;53.30;101331.38;4991565;28;20038;-44
2022/04/28 07:37:50;;;;;;;0.60;0.20;;;;;;;18.85;53.23;101328.72;4989551;28;20031;-45
2022/04/28 07:40:15;;;;;;;0.90;0.30;;;;;;;18.85;53.25;101331.38;4991127;28;20085;-48
2022/04/28 07:42:41;;;;;;;4.03;0.32;;;;;;;18.84;53.20;101340.28;4991088;28;20425;-43
2022/04/28 07:45:07;;;;;;;0.52;0.20;;;;;;;18.83;53.33;101338.66;4981869;28;20385;-49
2022/04/28 07:47:32;;;;;;;1.00;0.20;;;;;;;18.80;53.58;101333.72;4984557;28;20519;-56
2022/04/28 07:49:58;;;;;;;1.80;0.20;;;;;;;18.80;53.70;101339.00;4983928;28;20453;-51
2022/04/28 07:52:23;;;;;;;4.15;0.30;;;;;;;18.81;54.10;101343.28;4981407;28;20050;-43
2022/04/28 07:54:49;;;;;;;3.75;0.20;;;;;;;18.82;54.47;101337.00;4984132;28;20205;-48
2022/04/28 07:57:15;;;;;;;2.70;0.30;;;;;;;18.84;55.23;101340.28;4981537;28;20390;-48
2022/04/28 07:59:41;;;;;;;2.90;0.20;;;;;;;18.85;55.11;101343.75;4982510;28;20054;-49
2022/04/28 08:02:11;;;;;;;0.70;0.20;;;;;;;18.82;54.49;101347.56;4989713;28;20489;-47
2022/04/28 08:04:37;;;;;;;1.60;0.20;;;;;;;18.83;54.25;101341.28;4987453;28;20088;-53
2022/04/28 08:07:03;;;;;;;0.82;0.20;;;;;;;18.82;53.72;101344.94;4987674;28;20042;-47
2022/04/28 08:09:29;;;;;;;0.70;0.20;;;;;;;18.83;53.67;101349.22;4989617;28;20031;-49
2022/04/28 08:11:54;;;;;;;3.30;0.20;;;;;;;18.83;53.40;101345.75;4989897;28;20034;-47
2022/04/28 08:14:23;;;;;;;0.50;0.38;;;;;;;18.82;53.26;101346.75;4990284;28;20546;-47
2022/04/28 08:16:49;;;;;;;2.05;0.20;;;;;;;18.81;53.26;101345.94;4986386;28;20077;-50
2022/04/28 08:19:14;;;;;;;0.90;0.20;;;;;;;18.81;53.41;101348.56;4980192;28;20557;-48
2022/04/28 08:21:40;;;;;;;0.85;0.20;;;;;;;18.80;53.27;101344.28;4984231;28;20031;-47
2022/04/28 08:24:05;;;;;;;0.50;0.20;;;;;;;18.79;53.15;101342.63;4986915;28;20492;-46
2022/04/28 08:26:31;;;;;;;1.17;0.20;;;;;;;18.82;54.29;101342.28;4988349;28;20026;-49
2022/04/28 08:28:56;;;;;;;3.95;2.00;;;;;;;18.89;56.62;101334.47;4986104;28;20439;-47
2022/04/28 08:31:22;;;;;;;2.35;0.80;;;;;;;18.94;56.99;101337.38;4984129;28;20038;-50
2022/04/28 08:33:48;;;;;;;2.45;0.30;;;;;;;18.93;55.72;101332.28;4985132;28;20030;-47
2022/04/28 08:36:15;;;;;;;1.80;0.30;;;;;;;18.89;55.00;101337.94;4982941;28;20068;-52
2022/04/28 08:38:42;;;;;;;4.15;0.30;;;;;;;18.89;54.82;101348.50;4983690;28;20121;-44
2022/04/28 08:41:09;;;;;;;4.85;0.55;;;;;;;18.93;54.65;101335.75;4984633;28;20028;-44
2022/04/28 08:43:37;;;;;;;1.67;0.38;;;;;;;18.96;54.66;101337.22;4985479;28;20030;-44
2022/04/28 08:48:53;;;;;;;2.97;0.20;;;;;;;18.95;54.31;101339.03;4987777;28;20052;-50
2022/04/28 08:51:25;;;;;;;1.00;0.20;;;;;;;18.93;54.19;101338.38;4983861;28;20033;-46
2022/04/28 08:53:51;;;;;;;2.55;0.47;;;;;;;18.92;53.96;101333.28;4984366;28;20567;-43
2022/04/28 08:56:21;;;;;;;6.00;0.38;;;;;;;18.92;53.59;101333.28;4981039;28;20036;-47
2022/04/28 08:58:47;;;;;;;1.90;0.30;;;;;;;18.92;53.26;101320.06;4981148;28;20517;-43
2022/04/28 09:01:13;;;;;;;2.63;0.20;;;;;;;18.90;53.10;101322.91;4980526;28;20037;-45
2022/04/28 09:03:40;;;;;;;3.38;0.30;;;;;;;18.88;52.94;101325.75;4984502;28;20215;-47
2022/04/28 09:06:34;;;;;;;2.15;0.25;;;;;;;18.85;52.57;101320.81;4981932;28;20045;-45
2022/04/28 09:09:05;;;;;;;3.20;0.25;;;;;;;18.87;52.65;101323.28;4979450;28;20121;-44
2022/04/28 09:11:39;;;;;;;3.05;0.30;;;;;;;18.86;53.31;101314.53;4981515;28;20084;-44
2022/04/28 09:14:18;;;;;;;2.15;0.20;;;;;;;18.88;53.04;101322.28;4983655;28;20487;-46
2022/04/28 09:16:58;;;;;;;2.47;0.35;;;;;;;18.84;52.68;101316.53;4981353;28;20058;-45
2022/04/28 09:19:32;;;;;;;1.27;0.50;;;;;;;18.86;51.94;101316.34;4985439;28;20109;-46
2022/04/28 09:22:02;;;;;;;3.20;0.30;;;;;;;18.83;49.67;101312.25;4986021;28;20061;-47
2022/04/28 09:24:28;;;;;;;1.77;0.20;;;;;;;18.81;47.21;101303.69;4985903;28;20121;-47
2022/04/28 09:26:54;;;;;;;0.47;0.30;;;;;;;18.78;45.22;101300.56;5001461;28;20038;-46
2022/04/28 09:29:21;;;;;;;0.50;0.30;;;;;;;18.76;43.73;101299.94;4988856;28;20479;-47
2022/04/28 09:31:49;;;;;;;1.77;0.30;;;;;;;18.75;42.91;101298.28;4988529;28;20034;-46
2022/04/28 09:34:17;;;;;;;1.88;0.30;;;;;;;18.75;41.92;101304.41;4988581;28;20052;-47
2022/04/28 09:36:44;;;;;;;2.85;0.50;;;;;;;18.75;42.00;101299.13;4987065;28;20486;-47
2022/04/28 09:42:29;;;;;;;0.70;0.30;;;;;;;18.71;40.91;101287.25;4987832;28;20129;-47
2022/04/28 09:44:52;;;;;;;1.38;0.30;;;;;;;18.67;40.14;101278.06;4988876;28;20045;-46
2022/04/28 09:47:22;;;;;;;0.93;0.22;;;;;;;18.67;40.24;101275.41;4988743;28;20080;-45
2022/04/28 09:49:55;;;;;;;1.08;0.63;;;;;;;18.67;40.30;101275.41;4993782;28;20335;-46
2022/04/28 09:52:28;;;;;;;2.03;0.40;;;;;;;18.69;40.36;101283.16;5006872;28;20112;-46
2022/04/28 09:54:56;;;;;;;1.67;0.38;;;;;;;18.68;40.67;101279.69;4998554;28;20116;-47
2022/04/28 09:57:22;;;;;;;0.80;0.40;;;;;;;18.68;40.70;101277.06;4988264;28;20026;-45
2022/04/28 09:59:58;;;;;;;0.95;0.30;;;;;;;18.65;39.45;101277.41;4987955;28;20132;-49
2022/04/28 10:02:26;;;;;;;0.93;0.40;;;;;;;18.64;37.89;101281.06;4988447;28;20061;-48
2022/04/28 10:04:53;;;;;;;1.60;0.50;;;;;;;18.66;37.63;101279.06;4988041;28;20153;-46
2022/04/28 10:07:20;;;;;;;0.82;0.40;;;;;;;18.68;37.59;101279.69;4984376;28;20061;-47
2022/04/28 10:09:48;;;;;;;0.93;0.40;;;;;;;18.70;37.53;101274.25;4984734;28;20292;-47
2022/04/28 10:12:25;;;;;;;1.17;0.45;;;;;;;18.69;37.84;101270.78;5046465;28;20257;-46
2022/04/28 10:14:53;;;;;;;2.15;0.30;;;;;;;18.69;38.09;101260.22;5033478;28;20037;-48
2022/04/28 10:17:40;;;;;;;0.60;0.30;;;;;;;18.67;38.44;101259.59;5042853;28;20040;-47
2022/04/28 10:20:11;;;;;;;2.00;0.50;;;;;;;18.68;38.94;101255.94;5027070;28;20083;-47
2022/04/28 10:22:39;;;;;;;0.93;0.40;;;;;;;18.69;38.38;101256.75;5024340;28;20076;-45
2022/04/28 10:33:25;;;;;;;2.35;0.40;;;;;;;18.66;39.03;101252.66;5024114;28;20037;-47
2022/04/28 10:35:50;;;;;;;4.18;0.50;;;;;;;18.68;39.35;101253.31;5023618;28;20026;-46
2022/04/28 10:38:30;;;;;;;0.60;0.30;;;;;;;18.67;39.89;101256.94;5024166;28;20115;-45
2022/04/28 10:41:00;;;;;;;1.23;0.30;;;;;;;18.68;40.34;101253.31;5054521;28;20041;-45
2022/04/28 10:43:30;;;;;;;1.35;0.32;;;;;;;18.68;40.53;101244.56;5023387;28;20041;-45
2022/04/28 10:45:57;;;;;;;0.95;0.30;;;;;;;18.68;40.82;101250.66;5022072;28;20026;-45
2022/04/28 10:48:33;;;;;;;1.75;0.30;;;;;;;18.67;40.78;101246.38;5023565;28;20105;-47
2022/04/28 10:51:02;;;;;;;0.63;0.30;;;;;;;18.67;40.95;101248.22;5023280;28;20481;-47
2022/04/28 10:53:27;;;;;;;0.75;0.50;;;;;;;18.68;41.23;101250.66;5023270;28;20037;-45
2022/04/28 10:55:53;;;;;;;2.47;0.40;;;;;;;18.68;41.39;101247.22;5023341;28;20040;-46
2022/04/28 10:58:22;;;;;;;2.10;0.55;;;;;;;18.69;41.67;101254.94;5023702;28;20188;-45
2022/04/28 11:00:53;;;;;;;1.13;0.40;;;;;;;18.68;41.83;101250.66;5028928;28;20029;-46
2022/04/28 11:03:46;;;;;;;0.85;0.30;;;;;;;18.65;41.92;101251.03;5032371;28;20127;-46
2022/04/28 11:06:19;;;;;;;2.10;0.30;;;;;;;18.68;42.42;101244.56;5038289;28;20039;-46
2022/04/28 11:08:55;;;;;;;2.58;0.40;;;;;;;18.69;42.88;101249.66;5031284;28;20377;-45
2022/04/28 11:11:21;;;;;;;3.17;0.30;;;;;;;18.70;42.86;101248.66;5041567;28;20740;-47
2022/04/28 11:13:58;;;;;;;0.70;0.40;;;;;;;18.72;42.98;101251.13;5027495;28;20021;-46
2022/04/28 11:16:26;;;;;;;1.20;0.30;;;;;;;18.74;42.97;101254.41;5025560;28;20173;-48
2022/04/28 11:18:53;;;;;;;0.70;0.30;;;;;;;18.75;42.92;101243.69;5023069;28;20444;-48
2022/04/28 11:21:19;;;;;;;0.75;0.40;;;;;;;18.75;42.95;101246.31;5025395;28;20080;-46
2022/04/28 11:23:47;;;;;;;0.95;0.30;;;;;;;18.75;43.01;101243.69;5010162;28;20239;-47
2022/04/28 11:26:13;;;;;;;0.75;0.30;;;;;;;18.75;42.97;101235.75;5015307;28;20389;-46
2022/04/28 11:28:40;;;;;;;0.65;0.30;;;;;;;18.77;42.81;101239.03;5021874;28;20144;-45
2022/04/28 11:31:18;;;;;;;0.73;0.30;;;;;;;18.74;42.91;101238.56;5012257;28;20037;-45
2022/04/28 11:33:47;;;;;;;0.70;0.40;;;;;;;18.74;42.96;101242.03;5014471;28;20120;-45
2022/04/28 11:36:14;;;;;;;0.82;0.30;;;;;;;18.74;43.18;101239.41;5018115;28;20522;-48
2022/04/28 11:38:48;;;;;;;0.93;0.32;;;;;;;18.74;42.86;101238.56;5009554;28;20022;-46
2022/04/28 11:41:13;;;;;;;2.58;0.40;;;;;;;18.74;42.84;101239.41;5012545;28;20042;-45
2022/04/28 11:43:39;;;;;;;3.13;0.55;;;;;;;18.77;43.21;101236.41;5016825;28;20033;-48
2022/04/28 11:46:05;;;;;;;1.63;0.50;;;;;;;18.78;43.06;101235.41;5019611;28;20029;-46
2022/04/28 11:48:32;;;;;;;0.73;0.30;;;;;;;18.80;43.19;101229.94;5007940;28;20077;-48
2022/04/28 11:51:04;;;;;;;0.95;0.30;;;;;;;18.80;43.09;101224.66;5009784;28;20034;-48
2022/04/28 11:53:44;;;;;;;0.60;0.30;;;;;;;18.81;42.78;101221.03;5011981;28;20425;-47